sensor_id;sensor_type;location;lat;lon;timestamp;pressure;altitude;pressure_sealevel;temperature;humidity
41140;BME280;26881;48.784;9.192;2023-08-01T00:01:35;97588.22;;;18.93;81.59
41140;BME280;26881;48.784;9.192;2023-08-01T00:06:57;97586.25;;;18.87;82.59
41140;BME280;26881;48.784;9.192;2023-08-01T00:12:19;97577.47;;;18.86;82.87
41140;BME280;26881;48.784;9.192;2023-08-01T00:17:40;97566.56;;;18.81;83.67
41140;BME280;26881;48.784;9.192;2023-08-01T00:23:02;97551.63;;;18.72;86.65
41140;BME280;26881;48.784;9.192;2023-08-01T00:28:24;97549.97;;;18.71;87.07
41140;BME280;26881;48.784;9.192;2023-08-01T00:33:46;97539.53;;;18.61;91.00
41140;BME280;26881;48.784;9.192;2023-08-01T00:39:08;97534.25;;;18.61;92.77
41140;BME280;26881;48.784;9.192;2023-08-01T00:44:31;97517.34;;;18.62;93.37
41140;BME280;26881;48.784;9.192;2023-08-01T00:49:53;97515.72;;;18.61;95.54
41140;BME280;26881;48.784;9.192;2023-08-01T00:55:15;97526.31;;;18.61;92.98
41140;BME280;26881;48.784;9.192;2023-08-01T01:00:37;97500.84;;;18.60;92.63
41140;BME280;26881;48.784;9.192;2023-08-01T01:11:32;97476.50;;;18.65;88.26
41140;BME280;26881;48.784;9.192;2023-08-01T01:16:55;97469.84;;;18.69;85.84
41140;BME280;26881;48.784;9.192;2023-08-01T01:22:18;97459.25;;;18.69;84.30
41140;BME280;26881;48.784;9.192;2023-08-01T01:27:41;97444.53;;;18.74;83.39
41140;BME280;26881;48.784;9.192;2023-08-01T01:33:04;97444.84;;;18.80;82.43
41140;BME280;26881;48.784;9.192;2023-08-01T01:38:26;97424.63;;;18.87;81.19
41140;BME280;26881;48.784;9.192;2023-08-01T01:43:48;97423.31;;;18.91;81.78
41140;BME280;26881;48.784;9.192;2023-08-01T01:49:10;97411.06;;;18.73;84.23
41140;BME280;26881;48.784;9.192;2023-08-01T01:54:32;97399.81;;;18.71;85.45
41140;BME280;26881;48.784;9.192;2023-08-01T01:59:54;97398.19;;;18.62;86.50
41140;BME280;26881;48.784;9.192;2023-08-01T02:05:16;97387.97;;;18.51;87.09
41140;BME280;26881;48.784;9.192;2023-08-01T02:10:38;97398.72;;;18.41;89.55
41140;BME280;26881;48.784;9.192;2023-08-01T02:16:00;97385.34;;;18.43;88.90
41140;BME280;26881;48.784;9.192;2023-08-01T02:21:22;97387.31;;;18.49;88.46
41140;BME280;26881;48.784;9.192;2023-08-01T02:26:44;97378.06;;;18.37;93.09
41140;BME280;26881;48.784;9.192;2023-08-01T02:32:06;97388.16;;;18.41;89.33
41140;BME280;26881;48.784;9.192;2023-08-01T02:37:28;97402.03;;;18.43;93.60
41140;BME280;26881;48.784;9.192;2023-08-01T02:42:50;97402.03;;;18.51;90.99
41140;BME280;26881;48.784;9.192;2023-08-01T02:48:11;97378.88;;;18.45;91.95
41140;BME280;26881;48.784;9.192;2023-08-01T02:53:33;97369.47;;;18.43;94.04
41140;BME280;26881;48.784;9.192;2023-08-01T02:58:55;97366.34;;;18.31;95.86
41140;BME280;26881;48.784;9.192;2023-08-01T03:04:17;97366.50;;;18.38;97.99
41140;BME280;26881;48.784;9.192;2023-08-01T03:09:42;97357.25;;;18.33;97.73
41140;BME280;26881;48.784;9.192;2023-08-01T03:15:05;97353.28;;;18.29;96.85
41140;BME280;26881;48.784;9.192;2023-08-01T03:20:27;97344.34;;;18.30;97.12
41140;BME280;26881;48.784;9.192;2023-08-01T03:25:48;97346.19;;;18.30;92.46
41140;BME280;26881;48.784;9.192;2023-08-01T03:31:10;97346.81;;;18.32;95.95
41140;BME280;26881;48.784;9.192;2023-08-01T03:36:32;97351.91;;;18.50;86.85
41140;BME280;26881;48.784;9.192;2023-08-01T03:41:55;97349.88;;;18.60;90.58
41140;BME280;26881;48.784;9.192;2023-08-01T03:47:17;97348.56;;;18.56;92.77
41140;BME280;26881;48.784;9.192;2023-08-01T03:52:39;97339.81;;;18.56;89.18
41140;BME280;26881;48.784;9.192;2023-08-01T03:58:00;97346.84;;;18.80;83.41
41140;BME280;26881;48.784;9.192;2023-08-01T04:03:22;97331.69;;;18.97;81.32
41140;BME280;26881;48.784;9.192;2023-08-01T04:08:44;97313.16;;;19.20;78.45
41140;BME280;26881;48.784;9.192;2023-08-01T04:14:06;97291.56;;;19.31;77.15
41140;BME280;26881;48.784;9.192;2023-08-01T04:19:28;97230.75;;;19.29;76.85
41140;BME280;26881;48.784;9.192;2023-08-01T04:24:50;97205.16;;;19.22;77.95
41140;BME280;26881;48.784;9.192;2023-08-01T04:30:12;97211.69;;;19.11;79.37
41140;BME280;26881;48.784;9.192;2023-08-01T04:35:34;97162.88;;;19.05;79.21
41140;BME280;26881;48.784;9.192;2023-08-01T04:40:56;97151.25;;;18.91;80.85
41140;BME280;26881;48.784;9.192;2023-08-01T04:46:18;97134.16;;;18.94;79.75
41140;BME280;26881;48.784;9.192;2023-08-01T04:51:39;97148.63;;;19.06;77.64
41140;BME280;26881;48.784;9.192;2023-08-01T04:57:01;97150.19;;;19.15;75.88
41140;BME280;26881;48.784;9.192;2023-08-01T05:02:23;97165.03;;;19.25;74.58
41140;BME280;26881;48.784;9.192;2023-08-01T05:07:45;97188.00;;;19.32;74.52
41140;BME280;26881;48.784;9.192;2023-08-01T05:13:07;97236.47;;;19.18;75.66
41140;BME280;26881;48.784;9.192;2023-08-01T05:18:29;97276.06;;;19.20;75.85
41140;BME280;26881;48.784;9.192;2023-08-01T05:23:51;97238.69;;;19.14;77.46
41140;BME280;26881;48.784;9.192;2023-08-01T05:29:13;97240.50;;;19.14;77.50
41140;BME280;26881;48.784;9.192;2023-08-01T05:34:35;97256.56;;;19.12;77.00
41140;BME280;26881;48.784;9.192;2023-08-01T05:39:57;97258.22;;;19.13;77.29
41140;BME280;26881;48.784;9.192;2023-08-01T05:45:18;97250.78;;;19.09;77.77
41140;BME280;26881;48.784;9.192;2023-08-01T05:50:40;97239.38;;;19.08;77.74
41140;BME280;26881;48.784;9.192;2023-08-01T05:56:02;97247.72;;;19.20;79.67
41140;BME280;26881;48.784;9.192;2023-08-01T06:01:24;97257.09;;;19.31;75.34
41140;BME280;26881;48.784;9.192;2023-08-01T06:06:46;97266.44;;;19.42;74.54
41140;BME280;26881;48.784;9.192;2023-08-01T06:12:08;97268.72;;;19.68;69.27
41140;BME280;26881;48.784;9.192;2023-08-01T06:17:31;97263.06;;;19.71;67.72
41140;BME280;26881;48.784;9.192;2023-08-01T06:22:53;97267.03;;;19.75;66.96
41140;BME280;26881;48.784;9.192;2023-08-01T06:28:15;97268.50;;;19.54;69.56
41140;BME280;26881;48.784;9.192;2023-08-01T06:33:37;97279.34;;;18.67;80.16
41140;BME280;26881;48.784;9.192;2023-08-01T06:38:58;97286.84;;;18.16;83.70
41140;BME280;26881;48.784;9.192;2023-08-01T06:44:21;97306.34;;;18.15;84.17
41140;BME280;26881;48.784;9.192;2023-08-01T06:49:43;97316.25;;;18.21;81.29
41140;BME280;26881;48.784;9.192;2023-08-01T06:55:05;97317.13;;;18.05;84.73
41140;BME280;26881;48.784;9.192;2023-08-01T07:00:27;97272.34;;;17.63;89.07
41140;BME280;26881;48.784;9.192;2023-08-01T07:05:49;97271.34;;;17.64;89.16
41140;BME280;26881;48.784;9.192;2023-08-01T07:11:11;97280.78;;;17.83;87.93
41140;BME280;26881;48.784;9.192;2023-08-01T07:16:33;97271.16;;;17.90;88.33
41140;BME280;26881;48.784;9.192;2023-08-01T07:21:55;97260.22;;;18.09;85.67
41140;BME280;26881;48.784;9.192;2023-08-01T07:27:20;97286.34;;;18.13;86.81
41140;BME280;26881;48.784;9.192;2023-08-01T07:32:42;97314.84;;;17.86;88.88
41140;BME280;26881;48.784;9.192;2023-08-01T07:38:05;97307.53;;;17.80;89.82
41140;BME280;26881;48.784;9.192;2023-08-01T07:43:26;97302.91;;;17.57;92.73
41140;BME280;26881;48.784;9.192;2023-08-01T07:48:48;97314.00;;;17.28;98.47
41140;BME280;26881;48.784;9.192;2023-08-01T07:54:11;97321.94;;;16.77;100.00
41140;BME280;26881;48.784;9.192;2023-08-01T07:59:32;97303.66;;;16.41;100.00
41140;BME280;26881;48.784;9.192;2023-08-01T08:04:54;97310.84;;;16.31;100.00
41140;BME280;26881;48.784;9.192;2023-08-01T08:10:16;97290.13;;;16.36;100.00
41140;BME280;26881;48.784;9.192;2023-08-01T08:15:38;97278.97;;;16.51;100.00
41140;BME280;26881;48.784;9.192;2023-08-01T08:21:00;97297.25;;;16.52;100.00
41140;BME280;26881;48.784;9.192;2023-08-01T08:26:22;97284.44;;;16.57;100.00
41140;BME280;26881;48.784;9.192;2023-08-01T08:31:45;97293.84;;;16.60;100.00
41140;BME280;26881;48.784;9.192;2023-08-01T08:37:07;97288.56;;;16.68;100.00
41140;BME280;26881;48.784;9.192;2023-08-01T08:42:29;97303.66;;;16.84;100.00
41140;BME280;26881;48.784;9.192;2023-08-01T08:47:55;97286.06;;;17.17;100.00
41140;BME280;26881;48.784;9.192;2023-08-01T08:53:21;97299.13;;;17.68;100.00
41140;BME280;26881;48.784;9.192;2023-08-01T08:58:44;97325.06;;;17.81;100.00
41140;BME280;26881;48.784;9.192;2023-08-01T09:04:06;97286.22;;;17.98;100.00
41140;BME280;26881;48.784;9.192;2023-08-01T09:09:28;97295.81;;;17.90;100.00
41140;BME280;26881;48.784;9.192;2023-08-01T09:14:50;97305.56;;;17.90;100.00
41140;BME280;26881;48.784;9.192;2023-08-01T09:20:12;97312.00;;;17.87;100.00
41140;BME280;26881;48.784;9.192;2023-08-01T09:25:34;97308.03;;;17.92;100.00
41140;BME280;26881;48.784;9.192;2023-08-01T09:30:56;97308.53;;;17.87;100.00
41140;BME280;26881;48.784;9.192;2023-08-01T09:36:23;97310.00;;;18.06;100.00
41140;BME280;26881;48.784;9.192;2023-08-01T09:41:46;97316.03;;;18.39;100.00
41140;BME280;26881;48.784;9.192;2023-08-01T09:47:08;97313.31;;;18.95;100.00
41140;BME280;26881;48.784;9.192;2023-08-01T09:52:30;97311.66;;;18.94;97.90
41140;BME280;26881;48.784;9.192;2023-08-01T09:57:53;97325.31;;;19.14;97.31
41140;BME280;26881;48.784;9.192;2023-08-01T10:03:18;97310.00;;;19.47;91.88
41140;BME280;26881;48.784;9.192;2023-08-01T10:08:44;97348.88;;;19.32;92.18
41140;BME280;26881;48.784;9.192;2023-08-01T10:14:06;97332.22;;;19.23;90.61
41140;BME280;26881;48.784;9.192;2023-08-01T10:19:31;97336.38;;;19.17;92.93
41140;BME280;26881;48.784;9.192;2023-08-01T10:24:55;97341.41;;;19.35;92.17
41140;BME280;26881;48.784;9.192;2023-08-01T10:30:26;97346.63;;;19.67;89.49
41140;BME280;26881;48.784;9.192;2023-08-01T10:35:48;97333.25;;;19.60;89.53
41140;BME280;26881;48.784;9.192;2023-08-01T10:46:52;97329.19;;;20.55;86.17
41140;BME280;26881;48.784;9.192;2023-08-01T10:52:17;97336.59;;;21.40;78.70
41140;BME280;26881;48.784;9.192;2023-08-01T10:57:48;97355.00;;;21.42;76.20
41140;BME280;26881;48.784;9.192;2023-08-01T11:03:11;97359.75;;;21.46;75.45
41140;BME280;26881;48.784;9.192;2023-08-01T11:08:37;97364.97;;;22.61;62.07
41140;BME280;26881;48.784;9.192;2023-08-01T11:14:00;97374.00;;;22.60;60.08
41140;BME280;26881;48.784;9.192;2023-08-01T11:19:25;97365.78;;;23.64;54.20
41140;BME280;26881;48.784;9.192;2023-08-01T11:24:51;97367.66;;;24.24;51.25
41140;BME280;26881;48.784;9.192;2023-08-01T11:30:12;97376.31;;;23.99;49.19
41140;BME280;26881;48.784;9.192;2023-08-01T11:35:34;97394.69;;;23.41;49.56
41140;BME280;26881;48.784;9.192;2023-08-01T11:41:01;97386.34;;;24.24;46.78
41140;BME280;26881;48.784;9.192;2023-08-01T11:46:30;97380.56;;;24.73;44.46
41140;BME280;26881;48.784;9.192;2023-08-01T11:51:53;97390.88;;;24.16;45.84
41140;BME280;26881;48.784;9.192;2023-08-01T11:57:14;97394.56;;;24.29;45.02
41140;BME280;26881;48.784;9.192;2023-08-01T12:02:37;97400.75;;;24.09;43.62
41140;BME280;26881;48.784;9.192;2023-08-01T12:08:09;97401.47;;;23.56;45.27
41140;BME280;26881;48.784;9.192;2023-08-01T12:13:32;97414.69;;;23.17;44.85
41140;BME280;26881;48.784;9.192;2023-08-01T12:18:54;97411.41;;;23.14;44.96
41140;BME280;26881;48.784;9.192;2023-08-01T12:24:22;97436.88;;;22.82;46.85
41140;BME280;26881;48.784;9.192;2023-08-01T12:29:43;97400.34;;;24.46;43.30
41140;BME280;26881;48.784;9.192;2023-08-01T12:35:05;97401.47;;;25.48;40.85
41140;BME280;26881;48.784;9.192;2023-08-01T12:40:28;97414.13;;;25.66;40.39
41140;BME280;26881;48.784;9.192;2023-08-01T12:45:49;97417.88;;;25.20;40.63
41140;BME280;26881;48.784;9.192;2023-08-01T12:51:15;97401.03;;;25.90;40.87
41140;BME280;26881;48.784;9.192;2023-08-01T12:56:37;97405.44;;;26.96;36.62
41140;BME280;26881;48.784;9.192;2023-08-01T13:01:59;97393.00;;;26.65;35.74
41140;BME280;26881;48.784;9.192;2023-08-01T13:07:21;97404.06;;;27.42;34.79
41140;BME280;26881;48.784;9.192;2023-08-01T13:12:43;97386.59;;;28.47;32.97
41140;BME280;26881;48.784;9.192;2023-08-01T13:18:05;97402.78;;;28.29;34.83
41140;BME280;26881;48.784;9.192;2023-08-01T13:23:27;97398.78;;;30.17;31.95
41140;BME280;26881;48.784;9.192;2023-08-01T13:28:49;97394.69;;;29.11;31.97
41140;BME280;26881;48.784;9.192;2023-08-01T13:34:10;97399.41;;;30.75;30.35
41140;BME280;26881;48.784;9.192;2023-08-01T13:39:32;97404.88;;;29.21;31.51
41140;BME280;26881;48.784;9.192;2023-08-01T13:44:54;97408.78;;;29.42;31.09
41140;BME280;26881;48.784;9.192;2023-08-01T13:50:16;97401.00;;;29.86;31.09
41140;BME280;26881;48.784;9.192;2023-08-01T13:55:38;97391.53;;;30.00;29.98
41140;BME280;26881;48.784;9.192;2023-08-01T14:01:07;97414.16;;;28.78;31.53
41140;BME280;26881;48.784;9.192;2023-08-01T14:06:29;97407.03;;;28.48;32.96
41140;BME280;26881;48.784;9.192;2023-08-01T14:11:51;97390.38;;;28.98;30.80
41140;BME280;26881;48.784;9.192;2023-08-01T14:17:13;97395.81;;;28.51;31.50
41140;BME280;26881;48.784;9.192;2023-08-01T14:22:35;97406.75;;;29.49;30.48
41140;BME280;26881;48.784;9.192;2023-08-01T14:27:57;97379.25;;;30.43;28.87
41140;BME280;26881;48.784;9.192;2023-08-01T14:33:19;97397.06;;;29.65;29.75
41140;BME280;26881;48.784;9.192;2023-08-01T14:38:42;97393.50;;;30.78;28.71
41140;BME280;26881;48.784;9.192;2023-08-01T14:44:04;97396.19;;;30.22;29.31
41140;BME280;26881;48.784;9.192;2023-08-01T14:49:26;97408.06;;;30.94;27.15
41140;BME280;26881;48.784;9.192;2023-08-01T14:54:50;97401.53;;;30.73;26.49
41140;BME280;26881;48.784;9.192;2023-08-01T15:00:13;97408.28;;;30.02;27.16
41140;BME280;26881;48.784;9.192;2023-08-01T15:05:35;97415.03;;;31.34;25.88
41140;BME280;26881;48.784;9.192;2023-08-01T15:10:57;97411.94;;;30.64;27.04
41140;BME280;26881;48.784;9.192;2023-08-01T15:16:19;97414.03;;;30.96;26.42
41140;BME280;26881;48.784;9.192;2023-08-01T15:21:41;97435.47;;;30.18;28.79
41140;BME280;26881;48.784;9.192;2023-08-01T15:27:04;97452.47;;;28.26;30.90
41140;BME280;26881;48.784;9.192;2023-08-01T15:32:25;97453.78;;;26.71;33.03
41140;BME280;26881;48.784;9.192;2023-08-01T15:37:47;97449.69;;;27.61;32.21
41140;BME280;26881;48.784;9.192;2023-08-01T15:43:09;97443.91;;;27.27;32.75
41140;BME280;26881;48.784;9.192;2023-08-01T15:48:32;97453.13;;;27.49;33.19
41140;BME280;26881;48.784;9.192;2023-08-01T15:53:54;97457.25;;;28.24;32.12
41140;BME280;26881;48.784;9.192;2023-08-01T15:59:16;97450.09;;;27.09;33.38
41140;BME280;26881;48.784;9.192;2023-08-01T16:04:38;97452.09;;;24.85;37.40
41140;BME280;26881;48.784;9.192;2023-08-01T16:10:00;97459.56;;;24.56;38.69
41140;BME280;26881;48.784;9.192;2023-08-01T16:15:22;97455.63;;;24.85;37.51
41140;BME280;26881;48.784;9.192;2023-08-01T16:20:45;97455.63;;;24.85;38.33
41140;BME280;26881;48.784;9.192;2023-08-01T16:26:07;97479.91;;;24.70;37.52
41140;BME280;26881;48.784;9.192;2023-08-01T16:31:29;97486.19;;;23.83;38.69
41140;BME280;26881;48.784;9.192;2023-08-01T16:36:50;97489.25;;;23.86;39.78
41140;BME280;26881;48.784;9.192;2023-08-01T16:42:12;97493.22;;;23.49;40.06
41140;BME280;26881;48.784;9.192;2023-08-01T16:47:34;97488.94;;;23.61;40.90
41140;BME280;26881;48.784;9.192;2023-08-01T16:53:04;97517.34;;;23.27;39.71
41140;BME280;26881;48.784;9.192;2023-08-01T16:58:27;97501.63;;;23.04;39.93
41140;BME280;26881;48.784;9.192;2023-08-01T17:03:49;97509.03;;;22.81;40.41
41140;BME280;26881;48.784;9.192;2023-08-01T17:09:11;97510.25;;;22.78;40.81
41140;BME280;26881;48.784;9.192;2023-08-01T17:14:32;97515.66;;;22.63;40.46
41140;BME280;26881;48.784;9.192;2023-08-01T17:19:54;97519.53;;;22.61;40.28
41140;BME280;26881;48.784;9.192;2023-08-01T17:25:17;97527.00;;;22.44;40.99
41140;BME280;26881;48.784;9.192;2023-08-01T17:30:39;97526.03;;;22.51;41.56
41140;BME280;26881;48.784;9.192;2023-08-01T17:36:02;97530.41;;;22.38;41.75
41140;BME280;26881;48.784;9.192;2023-08-01T17:41:28;97534.91;;;22.37;41.73
41140;BME280;26881;48.784;9.192;2023-08-01T17:46:50;97555.41;;;22.37;41.96
41140;BME280;26881;48.784;9.192;2023-08-01T17:52:12;97563.69;;;22.05;42.13
41140;BME280;26881;48.784;9.192;2023-08-01T17:57:34;97557.97;;;22.08;42.45
41140;BME280;26881;48.784;9.192;2023-08-01T18:02:56;97568.34;;;21.82;42.69
41140;BME280;26881;48.784;9.192;2023-08-01T18:08:18;97567.78;;;21.72;42.98
41140;BME280;26881;48.784;9.192;2023-08-01T18:13:45;97571.66;;;21.54;42.99
41140;BME280;26881;48.784;9.192;2023-08-01T18:19:07;97568.91;;;21.48;43.43
41140;BME280;26881;48.784;9.192;2023-08-01T18:24:30;97570.66;;;21.40;44.04
41140;BME280;26881;48.784;9.192;2023-08-01T18:29:52;97587.13;;;21.21;44.73
41140;BME280;26881;48.784;9.192;2023-08-01T18:35:14;97591.88;;;20.96;45.43
41140;BME280;26881;48.784;9.192;2023-08-01T18:40:37;97603.50;;;20.95;46.09
41140;BME280;26881;48.784;9.192;2023-08-01T18:46:02;97616.75;;;20.80;46.42
41140;BME280;26881;48.784;9.192;2023-08-01T18:51:24;97627.97;;;20.67;46.47
41140;BME280;26881;48.784;9.192;2023-08-01T18:56:46;97638.56;;;20.44;47.29
41140;BME280;26881;48.784;9.192;2023-08-01T19:02:08;97640.91;;;20.39;47.76
41140;BME280;26881;48.784;9.192;2023-08-01T19:07:31;97639.16;;;20.31;47.82
41140;BME280;26881;48.784;9.192;2023-08-01T19:12:53;97655.13;;;20.23;48.60
41140;BME280;26881;48.784;9.192;2023-08-01T19:18:15;97660.13;;;20.18;48.87
41140;BME280;26881;48.784;9.192;2023-08-01T19:23:37;97671.13;;;20.07;49.39
41140;BME280;26881;48.784;9.192;2023-08-01T19:28:59;97676.09;;;20.10;48.99
41140;BME280;26881;48.784;9.192;2023-08-01T19:34:20;97695.00;;;20.15;48.81
41140;BME280;26881;48.784;9.192;2023-08-01T19:39:43;97695.34;;;20.12;49.12
41140;BME280;26881;48.784;9.192;2023-08-01T19:45:05;97704.66;;;19.99;49.64
41140;BME280;26881;48.784;9.192;2023-08-01T19:50:29;97713.63;;;19.98;49.33
41140;BME280;26881;48.784;9.192;2023-08-01T19:55:52;97716.81;;;19.94;49.67
41140;BME280;26881;48.784;9.192;2023-08-01T20:01:14;97722.59;;;19.97;49.83
41140;BME280;26881;48.784;9.192;2023-08-01T20:06:36;97729.75;;;19.89;49.97
41140;BME280;26881;48.784;9.192;2023-08-01T20:11:58;97730.59;;;19.81;50.43
41140;BME280;26881;48.784;9.192;2023-08-01T20:17:20;97737.91;;;19.79;50.77
41140;BME280;26881;48.784;9.192;2023-08-01T20:22:41;97747.38;;;19.73;50.84
41140;BME280;26881;48.784;9.192;2023-08-01T20:28:03;97743.38;;;19.69;51.18
41140;BME280;26881;48.784;9.192;2023-08-01T20:33:26;97746.19;;;19.76;51.28
41140;BME280;26881;48.784;9.192;2023-08-01T20:38:48;97743.06;;;19.56;51.97
41140;BME280;26881;48.784;9.192;2023-08-01T20:44:09;97754.00;;;19.45;52.23
41140;BME280;26881;48.784;9.192;2023-08-01T20:49:31;97760.97;;;19.29;52.33
41140;BME280;26881;48.784;9.192;2023-08-01T20:54:53;97761.97;;;19.28;52.98
41140;BME280;26881;48.784;9.192;2023-08-01T21:00:15;97753.50;;;19.08;53.95
41140;BME280;26881;48.784;9.192;2023-08-01T21:05:37;97759.13;;;18.97;54.29
41140;BME280;26881;48.784;9.192;2023-08-01T21:10:59;97758.97;;;18.90;54.79
41140;BME280;26881;48.784;9.192;2023-08-01T21:16:21;97762.91;;;18.78;55.41
41140;BME280;26881;48.784;9.192;2023-08-01T21:21:43;97774.13;;;18.72;55.61
41140;BME280;26881;48.784;9.192;2023-08-01T21:27:05;97769.66;;;18.72;55.34
41140;BME280;26881;48.784;9.192;2023-08-01T21:32:27;97764.69;;;18.69;55.65
41140;BME280;26881;48.784;9.192;2023-08-01T21:37:49;97764.81;;;18.60;56.07
41140;BME280;26881;48.784;9.192;2023-08-01T21:43:12;97769.25;;;18.51;56.52
41140;BME280;26881;48.784;9.192;2023-08-01T21:48:34;97766.09;;;18.47;56.75
41140;BME280;26881;48.784;9.192;2023-08-01T21:53:56;97759.31;;;18.53;56.45
41140;BME280;26881;48.784;9.192;2023-08-01T21:59:19;97755.19;;;18.50;56.43
41140;BME280;26881;48.784;9.192;2023-08-01T22:04:41;97763.25;;;18.41;57.05
41140;BME280;26881;48.784;9.192;2023-08-01T22:10:03;97745.34;;;18.26;57.60
41140;BME280;26881;48.784;9.192;2023-08-01T22:15:28;97754.91;;;18.27;57.46
41140;BME280;26881;48.784;9.192;2023-08-01T22:20:52;97751.22;;;18.12;58.30
41140;BME280;26881;48.784;9.192;2023-08-01T22:26:14;97755.72;;;18.11;58.41
41140;BME280;26881;48.784;9.192;2023-08-01T22:31:36;97759.50;;;18.09;58.82
41140;BME280;26881;48.784;9.192;2023-08-01T22:36:57;97756.66;;;18.02;59.23
41140;BME280;26881;48.784;9.192;2023-08-01T22:42:20;97747.38;;;18.06;58.95
41140;BME280;26881;48.784;9.192;2023-08-01T22:47:41;97756.13;;;17.99;59.75
41140;BME280;26881;48.784;9.192;2023-08-01T22:53:03;97764.84;;;17.91;60.23
41140;BME280;26881;48.784;9.192;2023-08-01T22:58:26;97766.91;;;17.79;62.55
41140;BME280;26881;48.784;9.192;2023-08-01T23:03:48;97773.28;;;17.68;61.56
41140;BME280;26881;48.784;9.192;2023-08-01T23:09:10;97760.88;;;17.69;62.64
41140;BME280;26881;48.784;9.192;2023-08-01T23:14:32;97758.50;;;17.58;62.89
41140;BME280;26881;48.784;9.192;2023-08-01T23:19:54;97754.53;;;17.36;63.80
41140;BME280;26881;48.784;9.192;2023-08-01T23:25:16;97755.53;;;17.17;65.08
41140;BME280;26881;48.784;9.192;2023-08-01T23:30:38;97753.13;;;17.05;65.32
41140;BME280;26881;48.784;9.192;2023-08-01T23:36:02;97740.44;;;16.91;66.60
41140;BME280;26881;48.784;9.192;2023-08-01T23:41:24;97742.03;;;16.84;68.10
41140;BME280;26881;48.784;9.192;2023-08-01T23:46:46;97736.13;;;16.72;68.74
41140;BME280;26881;48.784;9.192;2023-08-01T23:52:08;97744.56;;;16.58;69.77
41140;BME280;26881;48.784;9.192;2023-08-01T23:57:30;97744.81;;;16.55;70.17
